Time;durP1;ratioP1;P1;durP2;ratioP2;P2;SDS_P1;SDS_P2;PMS_P1;PMS_P2;Temp;Humidity;BMP_temperature;BMP_pressure;BME280_temperature;BME280_humidity;BME280_pressure;Samples;Min_cycle;Max_cycle;Signal;HPM_P1;HPM_P2
2022/10/15 04:01:16;;;;;;;19.47;12.93;;;;;;;;;;5637371;23;20540;-75
2022/10/15 04:03:42;;;;;;;15.40;12.73;;;11.50;96.30;;;;;;5030660;28;20422;-73
2022/10/15 04:06:08;;;;;;;15.47;12.47;;;11.50;96.30;;;;;;5031464;28;20438;-74
2022/10/15 04:08:34;;;;;;;16.40;11.13;;;11.40;96.30;;;;;;5031140;28;20406;-73
2022/10/15 04:11:00;;;;;;;12.70;10.40;;;11.50;96.30;;;;;;5022165;28;20451;-73
2022/10/15 04:13:26;;;;;;;16.43;10.63;;;;;;;;;;4998031;28;20177;-74
2022/10/15 04:15:52;;;;;;;12.70;11.10;;;;;;;;;;5019648;28;20193;-71
2022/10/15 04:18:21;;;;;;;10.23;9.07;;;;;;;;;;4999904;28;20432;-71
2022/10/15 04:25:59;;;;;;;11.97;10.00;;;;;;;;;;5779572;23;20493;-72
2022/10/15 04:28:25;;;;;;;10.77;8.70;;;11.70;96.30;;;;;;5012638;28;20766;-72
2022/10/15 04:30:55;;;;;;;11.60;9.40;;;;;;;;;;5010931;28;20785;-72
2022/10/15 04:33:20;;;;;;;11.57;10.37;;;;;;;;;;5013069;28;21187;-72
2022/10/15 04:35:46;;;;;;;12.13;10.90;;;;;;;;;;5011427;28;20427;-72
2022/10/15 04:38:12;;;;;;;14.47;11.93;;;;;;;;;;5012207;28;20188;-72
2022/10/15 04:40:40;;;;;;;11.47;10.27;;;11.80;96.30;;;;;;5012744;28;20275;-72
2022/10/15 04:43:05;;;;;;;13.40;10.37;;;;;;;;;;5012936;28;20219;-72
2022/10/15 04:45:31;;;;;;;13.13;10.47;;;11.80;96.30;;;;;;5003648;28;20428;-74
2022/10/15 04:47:57;;;;;;;12.30;10.00;;;;;;;;;;5005507;28;20251;-73
2022/10/15 04:50:22;;;;;;;12.70;10.60;;;11.80;96.30;;;;;;4993305;28;20184;-74
2022/10/15 04:52:48;;;;;;;14.13;10.97;;;11.80;96.30;;;;;;4992914;28;20217;-74
2022/10/15 04:55:13;;;;;;;11.13;9.97;;;11.80;96.30;;;;;;4992526;28;20221;-73
2022/10/15 04:57:39;;;;;;;12.67;11.13;;;;;;;;;;4991666;28;20184;-74
2022/10/15 05:00:06;;;;;;;18.53;11.07;;;;;;;;;;4991978;28;20185;-74
2022/10/15 05:02:32;;;;;;;12.27;10.97;;;;;;;;;;4991027;28;20217;-75
2022/10/15 05:04:58;;;;;;;13.43;10.50;;;;;;;;;;4997882;28;20788;-74
2022/10/15 05:07:23;;;;;;;13.80;10.07;;;11.80;96.30;;;;;;4991582;28;20523;-72
2022/10/15 05:09:49;;;;;;;14.53;9.80;;;;;;;;;;4991225;28;20182;-72
2022/10/15 05:12:15;;;;;;;12.20;10.80;;;;;;;;;;4990569;28;20232;-72
2022/10/15 05:14:41;;;;;;;14.47;11.40;;;;;;;;;;4992436;28;20943;-73
2022/10/15 05:17:06;;;;;;;14.70;10.90;;;11.80;96.30;;;;;;4991613;28;20196;-72
2022/10/15 05:19:32;;;;;;;15.80;10.57;;;;;;;;;;5003780;28;20181;-73
2022/10/15 05:21:58;;;;;;;11.00;9.60;;;;;;;;;;4995169;28;20213;-72
2022/10/15 05:24:24;;;;;;;11.47;10.30;;;;;;;;;;4992290;28;20185;-74
2022/10/15 05:26:50;;;;;;;10.73;9.63;;;;;;;;;;4992638;28;20440;-71
2022/10/15 05:29:16;;;;;;;10.80;9.70;;;;;;;;;;4994086;28;20329;-73
2022/10/15 05:31:41;;;;;;;13.47;10.00;;;11.90;96.30;;;;;;4993025;28;20210;-74
2022/10/15 05:34:08;;;;;;;13.20;10.83;;;11.80;96.30;;;;;;4992011;28;20192;-74
2022/10/15 05:36:35;;;;;;;12.07;9.60;;;;;;;;;;4997619;28;20181;-72
2022/10/15 05:39:03;;;;;;;16.73;10.20;;;11.80;96.30;;;;;;5002768;28;20405;-73
2022/10/15 05:41:29;;;;;;;12.50;9.57;;;;;;;;;;4991599;28;20460;-75
2022/10/15 05:43:56;;;;;;;14.60;10.83;;;;;;;;;;4991568;28;20425;-71
2022/10/15 05:46:22;;;;;;;10.80;9.47;;;;;;;;;;5011824;28;20948;-72
2022/10/15 05:48:53;;;;;;;9.80;8.90;;;11.80;96.30;;;;;;5009824;28;20455;-71
2022/10/15 05:51:18;;;;;;;12.00;9.53;;;11.80;96.30;;;;;;5009686;28;20463;-72
2022/10/15 05:53:47;;;;;;;16.43;10.13;;;11.80;96.30;;;;;;5011702;28;20746;-72
2022/10/15 05:56:13;;;;;;;11.10;8.90;;;;;;;;;;5010580;28;20192;-75
2022/10/15 05:58:39;;;;;;;11.30;9.40;;;;;;;;;;5010540;28;20469;-76
2022/10/15 06:01:07;;;;;;;10.30;8.30;;;11.80;96.30;;;;;;4994054;28;20459;-76
2022/10/15 06:03:34;;;;;;;11.90;8.47;;;;;;;;;;5011060;28;20431;-74
2022/10/15 06:06:00;;;;;;;18.33;9.00;;;;;;;;;;5011246;28;20408;-75
2022/10/15 06:08:27;;;;;;;8.63;7.73;;;11.80;96.30;;;;;;5005523;28;20886;-75
2022/10/15 06:10:55;;;;;;;9.00;8.10;;;;;;;;;;4992542;28;20460;-77
2022/10/15 06:13:20;;;;;;;11.30;7.97;;;11.90;96.30;;;;;;4996701;28;20416;-75
2022/10/15 06:15:46;;;;;;;11.30;8.03;;;;;;;;;;5006656;28;20787;-76
2022/10/15 06:18:14;;;;;;;10.07;7.80;;;;;;;;;;5012422;28;20169;-76
2022/10/15 06:20:41;;;;;;;9.00;7.80;;;11.90;96.30;;;;;;5011814;28;20227;-76
2022/10/15 06:23:06;;;;;;;10.23;8.37;;;12.00;96.30;;;;;;5012931;28;20769;-74
2022/10/15 06:25:33;;;;;;;11.63;8.30;;;;;;;;;;5012726;28;20491;-76
2022/10/15 06:28:03;;;;;;;9.77;8.43;;;11.90;96.30;;;;;;5012438;28;20176;-76
2022/10/15 06:30:29;;;;;;;9.83;8.10;;;;;;;;;;5012689;28;20418;-76
2022/10/15 06:32:55;;;;;;;8.40;7.07;;;12.00;96.30;;;;;;5012453;28;20990;-74
2022/10/15 06:35:22;;;;;;;9.23;8.13;;;12.10;96.30;;;;;;5012410;28;20442;-75
2022/10/15 06:37:48;;;;;;;9.60;6.90;;;12.00;96.30;;;;;;4992026;28;20427;-76
2022/10/15 06:40:14;;;;;;;9.00;7.30;;;12.10;96.30;;;;;;4991666;28;20412;-74
2022/10/15 06:42:41;;;;;;;7.50;6.70;;;12.20;96.30;;;;;;5006831;28;20200;-74
2022/10/15 06:45:09;;;;;;;10.97;6.40;;;;;;;;;;5012433;28;20498;-74
2022/10/15 06:47:35;;;;;;;7.40;6.60;;;;;;;;;;5007494;28;20896;-74
2022/10/15 06:50:01;;;;;;;7.27;6.17;;;;;;;;;;5012626;28;20917;-75
2022/10/15 06:52:29;;;;;;;8.40;7.33;;;12.60;96.30;;;;;;5008423;28;20471;-74
2022/10/15 06:54:54;;;;;;;6.50;5.70;;;12.70;96.30;;;;;;4992963;28;20516;-74
2022/10/15 06:57:20;;;;;;;5.63;4.67;;;;;;;;;;4992209;28;20495;-76
2022/10/15 06:59:45;;;;;;;9.80;5.83;;;12.90;96.30;;;;;;4995330;28;20643;-75
2022/10/15 07:02:13;;;;;;;7.03;5.83;;;12.90;96.30;;;;;;5012505;28;20432;-74
2022/10/15 07:04:39;;;;;;;14.37;9.63;;;13.00;96.30;;;;;;5006782;28;20165;-74
2022/10/15 07:07:04;;;;;;;6.20;5.60;;;13.10;96.30;;;;;;5011752;28;20420;-76
2022/10/15 07:09:30;;;;;;;5.40;4.90;;;13.20;96.30;;;;;;5003239;28;20416;-76
2022/10/15 07:11:55;;;;;;;21.50;15.13;;;13.30;96.30;;;;;;5001592;28;20436;-74
2022/10/15 07:14:21;;;;;;;9.90;8.20;;;13.30;96.30;;;;;;5001214;28;20541;-74
2022/10/15 07:16:47;;;;;;;7.20;5.80;;;13.30;96.30;;;;;;5003773;28;20263;-73
2022/10/15 07:19:13;;;;;;;7.00;5.57;;;;;;;;;;5005923;28;20176;-76
2022/10/15 07:21:38;;;;;;;4.70;4.20;;;13.50;96.30;;;;;;4998472;28;20961;-73
2022/10/15 07:24:04;;;;;;;4.80;4.30;;;13.60;96.30;;;;;;5005530;28;20181;-73
2022/10/15 07:26:30;;;;;;;6.63;4.23;;;13.80;96.30;;;;;;5001552;28;20193;-72
2022/10/15 07:28:56;;;;;;;4.53;4.13;;;13.90;96.30;;;;;;5002160;28;20825;-73
2022/10/15 07:31:22;;;;;;;10.10;3.90;;;14.00;96.30;;;;;;5007251;28;20223;-75
2022/10/15 07:33:47;;;;;;;4.40;3.00;;;13.90;96.30;;;;;;4990681;28;20421;-75
2022/10/15 07:36:13;;;;;;;3.87;3.47;;;13.90;96.30;;;;;;5004405;28;20183;-75
2022/10/15 07:38:39;;;;;;;3.70;3.40;;;;;;;;;;4999043;28;20227;-75
2022/10/15 07:41:06;;;;;;;3.97;3.10;;;13.80;96.30;;;;;;4991473;28;20281;-73
2022/10/15 07:43:33;;;;;;;5.00;4.50;;;13.60;96.30;;;;;;4997130;28;20419;-72
2022/10/15 07:45:58;;;;;;;3.70;3.40;;;13.60;96.30;;;;;;5011995;28;20470;-77
2022/10/15 07:48:24;;;;;;;2.33;2.13;;;13.50;96.30;;;;;;5010214;28;20411;-73
2022/10/15 07:50:54;;;;;;;2.00;1.80;;;13.60;96.30;;;;;;5013942;28;20200;-75
2022/10/15 07:53:19;;;;;;;2.10;1.90;;;13.60;96.30;;;;;;5014578;28;20227;-74
2022/10/15 07:55:45;;;;;;;3.27;2.30;;;13.80;96.30;;;;;;5003343;28;20499;-73
2022/10/15 07:58:10;;;;;;;3.57;2.20;;;13.90;96.30;;;;;;4995948;28;20169;-73
2022/10/15 08:00:36;;;;;;;1.97;1.80;;;14.10;96.30;;;;;;4996171;28;20597;-73
2022/10/15 08:03:02;;;;;;;1.80;1.70;;;;;;;;;;5003586;28;20264;-74
2022/10/15 08:05:28;;;;;;;2.20;1.90;;;14.60;96.30;;;;;;4998772;28;20783;-73
2022/10/15 08:07:53;;;;;;;2.10;1.90;;;14.90;96.30;;;;;;5001352;28;20181;-73
2022/10/15 08:10:19;;;;;;;4.13;3.70;;;15.10;96.30;;;;;;5005940;28;20636;-73
2022/10/15 08:12:44;;;;;;;5.43;4.80;;;15.20;96.30;;;;;;4998963;28;20197;-75
2022/10/15 08:15:10;;;;;;;4.27;1.60;;;;;;;;;;5015505;28;20181;-73
2022/10/15 08:17:37;;;;;;;6.27;4.70;;;;;;;;;;5015131;28;20201;-74
2022/10/15 08:20:03;;;;;;;16.43;12.20;;;15.50;96.30;;;;;;5003971;28;20495;-77
2022/10/15 08:22:28;;;;;;;9.33;6.70;;;15.40;96.30;;;;;;5015191;28;20424;-75
2022/10/15 08:24:54;;;;;;;3.47;3.13;;;15.60;96.30;;;;;;5015149;28;20474;-73
2022/10/15 08:27:19;;;;;;;32.60;21.60;;;15.80;96.30;;;;;;5013527;28;20189;-74
2022/10/15 08:29:45;;;;;;;3.63;2.57;;;16.00;96.30;;;;;;5011356;28;20187;-76
2022/10/15 08:32:12;;;;;;;0.87;0.63;;;16.00;96.30;;;;;;5006664;28;20209;-78
2022/10/15 08:34:37;;;;;;;1.63;0.70;;;15.90;96.30;;;;;;5019111;28;20192;-75
2022/10/15 08:37:03;;;;;;;1.13;1.00;;;15.90;96.30;;;;;;5026088;28;20415;-76
2022/10/15 08:39:29;;;;;;;3.27;2.07;;;;;;;;;;5031465;28;20176;-77
2022/10/15 08:42:02;;;;;;;2.50;0.90;;;15.80;96.30;;;;;;5028727;28;20317;-75
2022/10/15 08:44:30;;;;;;;1.00;0.90;;;;;;;;;;5019571;28;20449;-77
2022/10/15 08:47:06;;;;;;;3.60;3.00;;;15.80;96.30;;;;;;5025612;28;20430;-77
2022/10/15 08:49:34;;;;;;;1.30;0.60;;;15.90;96.30;;;;;;5016879;28;20476;-75
2022/10/15 08:52:41;;;;;;;1.30;0.60;;;15.60;96.30;;;;;;5030968;28;20454;-76
2022/10/15 08:55:11;;;;;;;0.90;0.70;;;15.50;96.30;;;;;;5016813;28;20418;-74
2022/10/15 08:57:42;;;;;;;1.60;0.60;;;;;;;;;;5031358;28;20430;-74
2022/10/15 09:00:30;;;;;;;0.90;0.63;;;15.20;96.30;;;;;;5031229;28;20830;-74
2022/10/15 09:03:08;;;;;;;1.07;0.67;;;15.20;96.30;;;;;;5023557;28;20529;-75
2022/10/15 09:05:55;;;;;;;0.80;0.50;;;15.40;96.30;;;;;;5030608;28;20423;-76
2022/10/15 09:08:43;;;;;;;1.97;0.67;;;15.70;96.30;;;;;;5015522;28;20481;-74
2022/10/15 09:11:22;;;;;;;0.90;0.70;;;15.80;96.30;;;;;;5012972;28;20512;-75
2022/10/15 09:13:48;;;;;;;0.93;0.70;;;;;;;;;;5012119;28;20518;-74
2022/10/15 09:16:21;;;;;;;2.20;0.70;;;15.60;96.30;;;;;;5020036;28;20450;-74
2022/10/15 09:18:50;;;;;;;2.80;0.80;;;15.70;96.30;;;;;;4992310;28;20433;-74
2022/10/15 09:21:16;;;;;;;0.80;0.60;;;15.50;96.30;;;;;;5007687;28;20944;-74
2022/10/15 09:23:43;;;;;;;0.90;0.70;;;15.20;96.30;;;;;;4997920;28;20490;-75
2022/10/15 09:26:11;;;;;;;1.10;0.73;;;15.20;96.30;;;;;;4996019;28;20439;-75
2022/10/15 09:28:57;;;;;;;1.20;0.70;;;;;;;;;;4991604;28;20409;-74
2022/10/15 09:31:28;;;;;;;1.47;0.80;;;15.80;96.30;;;;;;4971213;28;20452;-75
2022/10/15 09:34:06;;;;;;;1.50;0.80;;;;;;;;;;4990739;28;20463;-75
2022/10/15 09:36:42;;;;;;;1.40;1.00;;;15.90;96.30;;;;;;4990629;28;21228;-75
2022/10/15 09:39:16;;;;;;;3.23;0.90;;;15.90;96.30;;;;;;4991469;28;20908;-74
2022/10/15 09:42:01;;;;;;;2.40;1.00;;;;;;;;;;4992040;28;20429;-75
2022/10/15 09:44:36;;;;;;;1.07;0.80;;;15.90;96.30;;;;;;4992414;28;20432;-74
2022/10/15 09:47:21;;;;;;;1.50;0.90;;;16.00;96.30;;;;;;4991935;28;20772;-74
2022/10/15 09:49:46;;;;;;;2.20;1.00;;;16.10;96.30;;;;;;5003271;28;20409;-74
2022/10/15 09:52:28;;;;;;;0.90;0.70;;;;;;;;;;4990766;28;21023;-75
2022/10/15 09:55:16;;;;;;;2.20;0.93;;;16.20;96.30;;;;;;4992068;28;20181;-74
2022/10/15 09:57:47;;;;;;;1.20;0.90;;;15.90;96.30;;;;;;5007517;28;20952;-74
2022/10/15 10:00:13;;;;;;;1.10;0.90;;;15.90;96.30;;;;;;5010234;28;20971;-75
2022/10/15 10:02:39;;;;;;;2.80;1.00;;;;;;;;;;5008866;28;20459;-74
2022/10/15 10:05:20;;;;;;;2.30;0.80;;;;;;;;;;5003213;28;20528;-76
2022/10/15 10:07:45;;;;;;;0.90;0.80;;;15.70;96.30;;;;;;5002953;28;20423;-76
2022/10/15 10:10:31;;;;;;;1.77;1.10;;;15.80;96.30;;;;;;4999097;28;20725;-77
2022/10/15 10:12:57;;;;;;;3.37;0.90;;;16.00;96.30;;;;;;5003962;28;20204;-76
2022/10/15 10:15:33;;;;;;;1.43;0.73;;;16.20;96.30;;;;;;5001814;28;20469;-75
2022/10/15 10:17:59;;;;;;;1.03;0.83;;;16.40;96.30;;;;;;5001740;28;20238;-75
2022/10/15 10:20:29;;;;;;;3.57;1.00;;;16.60;96.30;;;;;;4998597;28;20973;-75
2022/10/15 10:22:58;;;;;;;1.20;0.87;;;16.90;96.30;;;;;;4991747;28;20917;-74
2022/10/15 10:25:41;;;;;;;1.10;0.73;;;17.20;96.30;;;;;;4996386;28;20420;-75
2022/10/15 10:28:12;;;;;;;2.23;0.80;;;17.40;96.30;;;;;;5001090;28;20409;-74
2022/10/15 10:30:46;;;;;;;1.00;0.70;;;17.30;96.30;;;;;;5000985;28;20447;-74
2022/10/15 10:33:15;;;;;;;2.50;0.70;;;17.20;96.30;;;;;;5002351;28;20475;-74
2022/10/15 10:35:49;;;;;;;0.90;0.67;;;17.00;96.30;;;;;;4999802;28;20423;-75
2022/10/15 10:38:30;;;;;;;0.90;0.70;;;17.20;96.30;;;;;;4993923;28;20440;-74
2022/10/15 10:41:04;;;;;;;1.10;0.60;;;16.90;96.30;;;;;;4991699;28;20932;-74
2022/10/15 10:43:31;;;;;;;1.37;0.60;;;17.00;96.30;;;;;;4991822;28;20780;-74
2022/10/15 10:45:57;;;;;;;0.80;0.60;;;;;;;;;;4990222;28;20832;-75
2022/10/15 10:48:40;;;;;;;1.30;0.70;;;16.80;96.30;;;;;;4990187;28;20521;-73
2022/10/15 10:51:08;;;;;;;0.80;0.50;;;16.60;96.30;;;;;;4990749;28;20773;-73
2022/10/15 10:53:46;;;;;;;0.90;0.70;;;16.60;96.30;;;;;;4990760;28;20421;-73
2022/10/15 10:56:14;;;;;;;1.27;0.70;;;;;;;;;;5000279;28;20422;-73
2022/10/15 10:58:40;;;;;;;1.20;0.60;;;;;;;;;;5010350;28;20399;-73
2022/10/15 11:01:11;;;;;;;1.50;0.50;;;16.40;96.30;;;;;;5008843;28;20478;-73
2022/10/15 11:03:43;;;;;;;2.23;0.60;;;16.80;96.30;;;;;;5010482;28;20446;-73
2022/10/15 11:06:17;;;;;;;1.70;1.00;;;17.20;96.30;;;;;;5006930;28;20522;-74
2022/10/15 11:08:58;;;;;;;2.30;1.20;;;17.40;96.30;;;;;;4991194;28;20405;-74
2022/10/15 11:11:41;;;;;;;2.40;0.70;;;17.40;96.30;;;;;;4992011;28;20935;-75
2022/10/15 11:14:07;;;;;;;0.87;0.67;;;;;;;;;;5004302;28;20431;-74
2022/10/15 11:16:54;;;;;;;0.90;0.53;;;17.60;96.30;;;;;;5011067;28;20411;-74
2022/10/15 11:19:30;;;;;;;0.90;0.60;;;17.60;96.30;;;;;;4997713;28;20178;-74
2022/10/15 11:22:20;;;;;;;1.10;0.80;;;17.60;96.30;;;;;;4995308;28;20435;-75
2022/10/15 11:25:13;;;;;;;1.63;0.60;;;17.20;96.30;;;;;;4994565;28;20444;-74
2022/10/15 11:27:50;;;;;;;0.90;0.73;;;;;;;;;;4998422;28;20439;-74
2022/10/15 11:30:52;;;;;;;1.87;1.00;;;17.30;96.30;;;;;;4996679;28;20884;-73
2022/10/15 11:33:44;;;;;;;1.10;0.70;;;17.20;96.30;;;;;;4996563;28;20454;-75
2022/10/15 11:36:16;;;;;;;0.90;0.60;;;17.20;96.30;;;;;;4996619;28;20401;-76
2022/10/15 11:38:54;;;;;;;0.90;0.70;;;16.80;96.30;;;;;;4996170;28;20389;-75
2022/10/15 11:41:36;;;;;;;1.23;0.60;;;16.30;96.30;;;;;;4995224;28;20432;-75
2022/10/15 11:44:22;;;;;;;0.90;0.50;;;16.10;96.30;;;;;;4996596;28;20389;-77
2022/10/15 11:46:57;;;;;;;0.83;0.60;;;;;;;;;;4996307;28;20387;-76
2022/10/15 11:49:54;;;;;;;2.30;0.60;;;16.20;96.30;;;;;;4996259;28;20876;-78
2022/10/15 11:52:32;;;;;;;5.37;2.80;;;16.60;96.30;;;;;;4996266;28;20460;-78
2022/10/15 11:55:19;;;;;;;0.90;0.60;;;16.90;96.30;;;;;;4996368;28;20412;-78
2022/10/15 11:57:48;;;;;;;2.50;0.90;;;17.00;96.30;;;;;;4995816;28;20462;-78
2022/10/15 12:00:28;;;;;;;1.20;0.70;;;17.20;96.30;;;;;;4996165;28;20409;-78
2022/10/15 12:02:56;;;;;;;1.77;0.87;;;17.60;96.30;;;;;;4996427;28;20416;-78
2022/10/15 12:05:37;;;;;;;0.80;0.60;;;17.90;96.30;;;;;;4996168;28;20404;-78
2022/10/15 12:08:03;;;;;;;0.90;0.73;;;17.80;96.30;;;;;;4995520;28;20396;-78
2022/10/15 12:10:29;;;;;;;1.20;0.70;;;17.50;96.30;;;;;;4996159;28;20416;-77
2022/10/15 12:13:13;;;;;;;1.43;0.60;;;17.40;96.30;;;;;;4996151;28;20967;-77
2022/10/15 12:15:49;;;;;;;0.80;0.60;;;17.20;96.30;;;;;;4996116;28;20925;-77
2022/10/15 12:18:17;;;;;;;0.90;0.60;;;17.20;96.30;;;;;;4995460;28;20749;-77
2022/10/15 12:20:44;;;;;;;0.90;0.67;;;;;;;;;;4994401;28;20436;-77
2022/10/15 12:23:38;;;;;;;1.97;0.80;;;17.20;96.30;;;;;;4995921;28;20784;-77
2022/10/15 12:26:38;;;;;;;11.57;9.40;;;17.20;96.30;;;;;;4995879;28;21010;-77
2022/10/15 12:29:19;;;;;;;1.50;1.27;;;17.20;96.30;;;;;;4954810;29;20423;-77
2022/10/15 12:31:55;;;;;;;48.63;32.20;;;17.60;96.30;;;;;;4991169;28;20487;-77
2022/10/15 12:34:53;;;;;;;2.23;1.60;;;17.90;96.30;;;;;;4995647;28;20770;-77
2022/10/15 12:37:21;;;;;;;0.90;0.70;;;18.40;96.30;;;;;;4993950;28;20492;-77
2022/10/15 12:39:56;;;;;;;1.00;0.70;;;19.10;96.30;;;;;;4995450;28;20409;-77
2022/10/15 12:42:26;;;;;;;1.00;0.90;;;19.60;96.30;;;;;;4993942;28;20455;-77
2022/10/15 12:44:52;;;;;;;2.13;0.70;;;18.90;96.30;;;;;;4994173;28;20508;-77
2022/10/15 12:47:47;;;;;;;1.47;0.80;;;18.60;96.30;;;;;;4994691;28;20908;-77
2022/10/15 12:50:16;;;;;;;1.00;0.80;;;18.50;96.30;;;;;;4993914;28;20427;-77
2022/10/15 12:52:58;;;;;;;1.63;0.60;;;18.00;96.30;;;;;;4995062;28;20457;-77
2022/10/15 12:55:36;;;;;;;1.53;0.73;;;17.80;96.30;;;;;;4994104;28;20419;-77
2022/10/15 12:58:32;;;;;;;1.63;0.70;;;17.70;96.30;;;;;;4994552;28;20417;-77
2022/10/15 13:01:23;;;;;;;1.00;0.70;;;17.40;96.30;;;;;;4993801;28;20447;-77
2022/10/15 13:03:51;;;;;;;1.00;0.60;;;17.20;96.30;;;;;;4987613;28;20831;-77
2022/10/15 13:06:20;;;;;;;14.50;7.17;;;17.30;96.30;;;;;;4993947;28;21033;-77
2022/10/15 13:09:05;;;;;;;0.90;0.63;;;17.50;96.30;;;;;;4994639;28;20409;-77
2022/10/15 13:11:37;;;;;;;4.50;1.10;;;18.10;96.30;;;;;;4994853;28;20431;-77
2022/10/15 13:14:13;;;;;;;1.17;0.70;;;;;;;;;;4994961;28;20464;-77
2022/10/15 13:16:46;;;;;;;1.10;1.00;;;18.90;96.30;;;;;;4994530;28;20396;-77
2022/10/15 13:19:26;;;;;;;5.70;4.87;;;18.60;96.30;;;;;;4994909;28;20492;-77
2022/10/15 13:21:53;;;;;;;2.17;0.70;;;;;;;;;;4994593;28;20483;-77
2022/10/15 13:24:22;;;;;;;0.80;0.60;;;18.50;96.30;;;;;;4994616;28;20417;-77
2022/10/15 13:26:49;;;;;;;2.30;0.70;;;18.60;96.30;;;;;;4994018;28;20464;-77
2022/10/15 13:29:16;;;;;;;1.10;0.70;;;18.40;96.30;;;;;;4994645;28;20483;-77
2022/10/15 13:31:45;;;;;;;0.90;0.60;;;18.00;96.30;;;;;;4993143;28;20511;-77
2022/10/15 13:34:22;;;;;;;0.90;0.70;;;17.80;96.30;;;;;;4994481;28;20413;-77
2022/10/15 13:36:48;;;;;;;0.90;0.70;;;17.50;96.30;;;;;;4994039;28;20412;-77
2022/10/15 13:39:24;;;;;;;0.90;0.70;;;;;;;;;;4994448;28;20423;-77
2022/10/15 13:41:50;;;;;;;0.80;0.60;;;17.30;96.30;;;;;;4994283;28;20440;-77
2022/10/15 13:44:21;;;;;;;0.97;0.70;;;17.20;96.30;;;;;;4994426;28;20468;-77
2022/10/15 13:46:46;;;;;;;1.23;0.70;;;17.10;96.30;;;;;;4992306;28;20181;-77
2022/10/15 13:49:13;;;;;;;1.13;0.80;;;;;;;;;;4992010;28;20958;-77
2022/10/15 13:51:42;;;;;;;1.73;1.60;;;17.10;96.30;;;;;;4993942;28;20284;-77
2022/10/15 13:54:13;;;;;;;0.90;0.70;;;17.10;96.30;;;;;;4992853;28;20417;-77
2022/10/15 13:56:45;;;;;;;1.40;0.70;;;17.20;96.30;;;;;;4993748;28;20460;-77
2022/10/15 13:59:18;;;;;;;1.70;0.77;;;17.10;96.30;;;;;;4994046;28;20415;-77
2022/10/15 14:01:48;;;;;;;1.00;0.70;;;17.00;96.30;;;;;;4993913;28;20444;-77
2022/10/15 14:04:15;;;;;;;1.20;0.80;;;;;;;;;;4992843;28;20427;-77
2022/10/15 14:06:53;;;;;;;1.97;0.63;;;17.00;96.30;;;;;;4993520;28;20445;-77
2022/10/15 14:09:25;;;;;;;1.10;1.00;;;;;;;;;;4994006;28;20435;-77
2022/10/15 14:11:54;;;;;;;3.00;0.70;;;17.00;96.30;;;;;;4993646;28;20519;-77
2022/10/15 14:14:35;;;;;;;1.27;1.17;;;16.90;96.30;;;;;;4993810;28;20421;-77
2022/10/15 14:17:19;;;;;;;1.00;0.80;;;17.00;96.30;;;;;;5010413;28;20506;-76
2022/10/15 14:19:48;;;;;;;2.70;1.40;;;17.00;96.30;;;;;;5006347;28;20416;-77
2022/10/15 14:22:17;;;;;;;0.90;0.80;;;17.00;96.30;;;;;;5013210;28;20431;-77
2022/10/15 14:24:50;;;;;;;1.30;1.10;;;17.00;96.30;;;;;;5013251;28;20428;-77
2022/10/15 14:27:19;;;;;;;6.90;2.10;;;17.10;96.30;;;;;;5012418;28;20539;-76
2022/10/15 14:29:51;;;;;;;2.73;1.20;;;17.10;96.30;;;;;;4990307;28;20441;-75
2022/10/15 14:32:24;;;;;;;1.27;1.00;;;17.10;96.30;;;;;;4991331;28;20550;-76
2022/10/15 14:34:55;;;;;;;0.90;0.70;;;17.00;96.30;;;;;;4993848;28;20459;-76
2022/10/15 14:37:36;;;;;;;4.00;1.67;;;;;;;;;;4999968;28;20946;-76
2022/10/15 14:40:10;;;;;;;2.93;1.40;;;16.90;96.30;;;;;;4992744;28;21115;-76
2022/10/15 14:43:04;;;;;;;1.40;0.80;;;16.80;96.30;;;;;;5002228;28;20518;-77
2022/10/15 14:45:42;;;;;;;1.93;0.70;;;16.70;96.30;;;;;;5004188;28;20427;-76
2022/10/15 14:48:10;;;;;;;0.90;0.70;;;16.60;96.30;;;;;;4995208;28;20416;-77
2022/10/15 14:50:41;;;;;;;1.00;0.83;;;16.60;96.30;;;;;;4993144;28;20491;-76
2022/10/15 14:53:10;;;;;;;2.17;0.90;;;16.60;96.30;;;;;;4993362;28;20546;-77
2022/10/15 14:55:42;;;;;;;1.50;0.80;;;16.60;96.30;;;;;;4997497;28;20967;-77
2022/10/15 14:58:15;;;;;;;1.93;0.90;;;16.50;96.30;;;;;;5008999;28;20424;-77
2022/10/15 15:00:41;;;;;;;1.00;0.70;;;;;;;;;;5010599;28;20463;-75
2022/10/15 15:03:07;;;;;;;1.33;0.70;;;;;;;;;;5013335;28;20916;-75
2022/10/15 15:05:51;;;;;;;0.90;0.70;;;16.40;96.30;;;;;;5014189;28;20687;-75
2022/10/15 15:08:17;;;;;;;1.00;0.80;;;16.30;96.30;;;;;;5025046;28;20180;-76
2022/10/15 15:10:44;;;;;;;0.90;0.70;;;16.30;96.30;;;;;;5034632;28;20533;-76
2022/10/15 15:13:31;;;;;;;2.83;0.70;;;16.20;96.30;;;;;;5034587;28;20208;-76
2022/10/15 15:15:57;;;;;;;8.80;1.70;;;;;;;;;;5034354;28;20468;-76
2022/10/15 15:18:23;;;;;;;1.30;0.90;;;16.30;96.30;;;;;;5001759;28;20771;-76
2022/10/15 15:20:50;;;;;;;1.30;0.80;;;16.30;96.30;;;;;;4994570;28;20433;-76
2022/10/15 15:23:19;;;;;;;1.67;0.80;;;16.10;96.30;;;;;;4994535;28;20181;-75
2022/10/15 15:25:47;;;;;;;2.93;0.80;;;16.10;96.30;;;;;;4994127;28;20909;-76
2022/10/15 15:28:16;;;;;;;1.00;0.80;;;16.10;96.30;;;;;;4994849;28;20769;-76
2022/10/15 15:30:42;;;;;;;1.00;0.80;;;16.10;96.30;;;;;;4999041;28;20490;-76
2022/10/15 15:33:13;;;;;;;1.10;0.93;;;16.00;96.30;;;;;;5008247;28;20880;-75
2022/10/15 15:35:52;;;;;;;1.60;0.83;;;16.00;96.30;;;;;;4992866;28;20424;-75
2022/10/15 15:38:19;;;;;;;1.83;1.20;;;;;;;;;;4998234;28;20515;-76
2022/10/15 15:40:45;;;;;;;0.90;0.80;;;15.90;96.30;;;;;;5007337;28;20435;-76
2022/10/15 15:43:12;;;;;;;3.10;1.07;;;;;;;;;;4996996;28;20429;-76
2022/10/15 15:45:38;;;;;;;1.40;1.30;;;;;;;;;;5001428;28;20421;-76
2022/10/15 15:48:04;;;;;;;1.10;0.90;;;15.80;96.30;;;;;;5001044;28;20488;-75
2022/10/15 15:50:30;;;;;;;1.13;0.80;;;;;;;;;;4994642;28;20221;-76
2022/10/15 15:52:56;;;;;;;1.67;0.90;;;15.80;96.30;;;;;;4992017;28;20209;-76
2022/10/15 15:55:22;;;;;;;1.30;0.80;;;15.80;96.30;;;;;;4992048;28;20471;-76
2022/10/15 15:57:48;;;;;;;1.10;0.93;;;;;;;;;;5006354;28;20238;-76
2022/10/15 16:00:15;;;;;;;2.70;0.90;;;;;;;;;;5005068;28;20185;-76
2022/10/15 16:02:41;;;;;;;3.10;0.70;;;;;;;;;;4996202;28;20193;-76
2022/10/15 16:05:09;;;;;;;1.30;1.17;;;15.80;96.30;;;;;;4991967;28;20417;-76
2022/10/15 16:07:35;;;;;;;1.00;0.90;;;15.80;96.30;;;;;;5008514;28;20439;-76
2022/10/15 16:10:00;;;;;;;2.50;0.80;;;15.70;96.30;;;;;;5001578;28;20417;-76
2022/10/15 16:12:26;;;;;;;1.10;0.90;;;15.60;96.30;;;;;;4992152;28;20211;-76
2022/10/15 16:14:52;;;;;;;1.40;0.90;;;15.60;96.30;;;;;;4993407;28;20178;-76
2022/10/15 16:17:17;;;;;;;0.90;0.80;;;15.50;96.30;;;;;;4992688;28;20193;-77
2022/10/15 16:19:44;;;;;;;1.00;0.90;;;;;;;;;;4993371;28;20177;-77
2022/10/15 16:22:09;;;;;;;2.80;1.47;;;15.30;96.30;;;;;;5032153;28;20226;-76
2022/10/15 16:24:35;;;;;;;0.83;0.63;;;15.20;96.30;;;;;;5030796;28;20437;-76
2022/10/15 16:27:00;;;;;;;1.00;0.90;;;15.20;96.30;;;;;;4997694;28;20212;-75
2022/10/15 16:29:26;;;;;;;0.90;0.70;;;;;;;;;;4995112;28;20530;-74
2022/10/15 16:31:52;;;;;;;2.50;1.77;;;15.20;96.30;;;;;;4994897;28;20329;-74
2022/10/15 16:34:18;;;;;;;4.20;3.90;;;;;;;;;;4996546;28;20228;-74
2022/10/15 16:36:44;;;;;;;5.83;5.30;;;;;;;;;;4994678;28;20886;-75
2022/10/15 16:39:10;;;;;;;1.23;1.10;;;;;;;;;;4995695;28;20486;-75
2022/10/15 16:41:35;;;;;;;2.00;1.17;;;14.80;96.30;;;;;;4995385;28;20567;-75
2022/10/15 16:44:01;;;;;;;1.00;0.90;;;14.80;96.30;;;;;;4994525;28;20182;-75
2022/10/15 16:46:27;;;;;;;1.30;1.00;;;;;;;;;;4993540;28;20240;-75
2022/10/15 16:48:54;;;;;;;1.40;1.20;;;14.80;96.30;;;;;;4992956;28;20170;-75
2022/10/15 16:51:21;;;;;;;1.23;0.80;;;14.80;96.30;;;;;;4993062;28;20236;-77
2022/10/15 16:53:47;;;;;;;1.50;1.23;;;;;;;;;;4996082;28;20782;-78
2022/10/15 16:56:15;;;;;;;4.23;3.83;;;;;;;;;;5003857;28;20404;-78
2022/10/15 16:58:41;;;;;;;0.90;0.73;;;14.60;96.30;;;;;;5011832;28;20415;-78
2022/10/15 17:01:13;;;;;;;1.87;1.23;;;14.50;96.30;;;;;;5014154;28;20797;-77
2022/10/15 17:03:39;;;;;;;21.10;17.70;;;14.40;96.30;;;;;;5014465;28;20404;-78
2022/10/15 17:06:08;;;;;;;41.30;24.67;;;14.30;96.30;;;;;;5014763;28;20418;-78
2022/10/15 17:08:51;;;;;;;17.63;9.60;;;14.20;96.30;;;;;;5023426;28;20404;-78
2022/10/15 17:11:17;;;;;;;17.97;10.30;;;14.10;96.30;;;;;;5019350;28;20440;-77
2022/10/15 17:13:43;;;;;;;66.10;24.57;;;14.00;96.30;;;;;;5017323;28;20461;-77
2022/10/15 17:16:12;;;;;;;33.37;16.27;;;14.00;96.30;;;;;;5021135;28;20427;-72
2022/10/15 17:18:38;;;;;;;29.23;15.33;;;14.00;96.30;;;;;;5035533;28;20199;-73
2022/10/15 17:21:06;;;;;;;12.57;7.63;;;13.90;96.30;;;;;;5019985;28;20443;-75
2022/10/15 17:23:33;;;;;;;21.17;13.87;;;;;;;;;;4999980;28;20872;-75
2022/10/15 17:26:04;;;;;;;22.57;19.50;;;13.90;96.30;;;;;;4993935;28;20436;-75
2022/10/15 17:28:30;;;;;;;15.23;12.10;;;13.80;96.30;;;;;;4993253;28;20452;-75
2022/10/15 17:31:00;;;;;;;6.70;5.73;;;13.60;96.30;;;;;;5002648;28;20845;-75
2022/10/15 17:33:25;;;;;;;9.70;6.30;;;13.60;96.30;;;;;;5014224;28;20204;-75
2022/10/15 17:35:51;;;;;;;26.67;18.10;;;13.60;96.30;;;;;;5013757;28;20416;-73